Buffalo Lake, North Carolina
Current Conditions -  °F | °C
As of 12:55 PM on Thursday 30 Oct 2014 (Local Time) from KTTA Reporting Station
Clear Clear  
Wind Chill: 66°   Ceiling: Unl
Heat Index: 66°   Visibility: 10mi
Dew Point: 42°   Wind: 8mph
Humidity: 42%   Direction: 340°NNW
Pressure: 30.03"   Gusts: NA
Location:  35.493°N, 79.1765°W
Report Text: KTTA 301655Z AUTO 34007KT 10SM CLR 19/06 A3003 RMK AO2 T01880056
Loading
Personal Weather Stations






























Interactive Weather Map
Tropical Storm Tracking
New forecast layout! Learn more

10-Day Weather Forecast

Advertisements
Track Severe Weather on mobile